Flight Track Log - Related Links

Times and Time Zones

All times are in EDT time to prevent confusion due to time zone crossing. See the FDX1155 flight status page for this flight to view local times or setup timezone preferences in your user account.


Time Position Orientation Groundspeed Altitude Reporting Facility
EDT Latitude Longitude Course Direction KTS MPH feet Rate Location/Type
Fri 04:44:55 AM 32.9260 -97.3140 182° South 206 237 2,400  Level FlightAware ADS-B
Fri 04:45:21 AM 32.8970 -97.3160 183° South 234 269 3,300 1,821 Climbing FlightAware ADS-B
Fri 04:45:51 AM 32.8700 -97.3180 184° South 251 289 4,100 2,262 Climbing FlightAware ADS-B
Fri 04:46:22 AM 32.8250 -97.3080 169° South 270 311 5,600 2,945 Climbing FlightAware ADS-B
Fri 04:46:46 AM 32.7980 -97.2920 154° Southeast 275 316 6,800 3,057 Climbing FlightAware ADS-B
Fri 04:47:15 AM 32.7660 -97.2680 148° Southeast 278 320 8,300 2,679 Climbing FlightAware ADS-B
Fri 04:47:42 AM 32.7370 -97.2470 149° Southeast 289 333 9,300 2,308 Climbing FlightAware ADS-B
Fri 04:47:54 AM 32.7230 -97.2370 149° Southeast 294 338 9,800 1,286 Climbing FlightAware ADS-B
Fri 04:48:38 AM 32.6660 -97.1970 149° Southeast 349 402 10,500 1,129 Climbing FlightAware ADS-B
Fri 04:49:19 AM 32.6060 -97.1550 149° Southeast 382 440 11,400 1,610 Climbing FlightAware ADS-B
Fri 04:50:00 AM 32.5420 -97.1080 148° Southeast 399 459 12,700 2,047 Climbing FlightAware ADS-B
Fri 04:50:44 AM 32.4730 -97.0600 150° Southeast 404 465 14,300 2,023 Climbing FlightAware ADS-B
Fri 04:51:26 AM 32.4030 -97.0100 149° Southeast 414 476 15,600 1,694 Climbing FlightAware ADS-B
Fri 04:52:09 AM 32.3300 -96.9580 149° Southeast 430 495 16,700 1,643 Climbing FlightAware ADS-B
Fri 04:52:50 AM 32.2610 -96.9090 149° Southeast 434 499 17,900 1,704 Climbing FlightAware ADS-B
Fri 04:53:30 AM 32.1900 -96.8600 150° Southeast 442 509 19,000 1,726 Climbing FlightAware ADS-B
Fri 04:54:03 AM 32.1322 -96.8188 149° Southeast 442 509 20,000 1,629 Climbing FlightAware ADS-B
Fri 04:54:40 AM 32.0656 -96.7727 150° Southeast 452 520 20,900 1,407 Climbing FlightAware ADS-B
Fri 04:55:24 AM 31.9861 -96.7165 149° Southeast 459 528 21,900 1,294 Climbing FlightAware ADS-B
Fri 04:56:22 AM 31.8766 -96.6402 149° Southeast 464 534 23,100 1,049 Climbing FlightAware ADS-B
Fri 04:57:07 AM 31.7905 -96.5800 149° Southeast 488 562 23,700 947 Climbing FlightAware ADS-B
Fri 04:57:38 AM 31.7304 -96.5380 149° Southeast 491 565 24,300 796 Climbing FlightAware ADS-B
Fri 04:58:45 AM 31.5989 -96.4474 150° Southeast 495 570 25,000 424 Climbing FlightAware ADS-B
Fri 04:59:17 AM 31.5359 -96.4037 149° Southeast 493 567 25,000  Level FlightAware ADS-B
Fri 04:59:48 AM 31.4735 -96.3603 149° Southeast 494 568 25,000 -468 Level FlightAware ADS-B
Fri 05:01:51 AM 31.2317 -96.1941 150° Southeast 489 563 23,800 -941 Descending FlightAware ADS-B
Fri 05:02:21 AM 31.1739 -96.1540 149° Southeast 478 550 22,600 -2,500 Descending FlightAware ADS-B
Fri 05:02:51 AM 31.1163 -96.1139 149° Southeast 471 542 21,300 -2,516 Descending FlightAware ADS-B
Fri 05:03:23 AM 31.0575 -96.0746 150° Southeast 459 528 20,000 -2,500 Descending FlightAware ADS-B
Fri 05:04:27 AM 30.9427 -95.9966 150° Southeast 439 505 17,300 -2,526 Descending FlightAware ADS-B
Fri 05:04:58 AM 30.8871 -95.9586 150° Southeast 434 499 16,000 -2,476 Descending FlightAware ADS-B
Fri 05:05:30 AM 30.8318 -95.9209 150° Southeast 430 495 14,700 -2,126 Descending FlightAware ADS-B
Fri 05:07:05 AM 30.6750 -95.8144 150° Southeast 400 460 11,500 -1,321 Descending FlightAware ADS-B
Fri 05:09:08 AM 30.4923 -95.6904 149° Southeast 328 377 9,900 -696 Descending FlightAware ADS-B
Fri 05:09:23 AM 30.4730 -95.6770 149° Southeast 311 358 9,900 -720 Level FlightAware ADS-B
Fri 05:10:23 AM 30.4037 -95.6317 152° Southeast 281 323 9,000 -1,099 Descending FlightAware ADS-B
Fri 05:11:34 AM 30.3248 -95.5794 150° Southeast 269 310 7,500 -1,346 Descending FlightAware ADS-B
Fri 05:12:59 AM 30.2333 -95.5172 150° Southeast 264 304 5,500 -1,353 Descending FlightAware ADS-B
Fri 05:13:16 AM 30.2157 -95.5052 149° Southeast 260 299 5,200 -1,233 Descending FlightAware ADS-B
Fri 05:14:12 AM 30.1578 -95.4664 150° Southeast 257 296 4,000 -1,167 Descending FlightAware ADS-B
Fri 05:14:28 AM 30.1415 -95.4555 150° Southeast 248 285 3,800 -789 Descending FlightAware ADS-B
Fri 05:14:50 AM 30.1205 -95.4423 151° Southeast 238 274 3,500 -789 Descending FlightAware ADS-B
Fri 05:15:06 AM 30.1054 -95.4325 151° Southeast 232 267 3,300 -938 Descending FlightAware ADS-B
Fri 05:15:22 AM 30.0923 -95.4246 152° Southeast 201 231 3,000 -1,091 Descending FlightAware ADS-B
Fri 05:15:28 AM 30.0873 -95.4216 153° Southeast 196 226 2,900 -1,200 Descending FlightAware ADS-B
Fri 05:15:42 AM 30.0759 -95.4146 152° Southeast 186 214 2,600 -1,500 Descending FlightAware ADS-B
Fri 05:15:56 AM 30.0654 -95.4083 153° Southeast 175 201 2,200 -1,385 Descending FlightAware ADS-B
Fri 05:16:08 AM 30.0569 -95.4032 153° Southeast 169 194 2,000 -1,227 Descending FlightAware ADS-B
Fri 05:16:40 AM 30.0362 -95.3912 154° Southeast 149 171 1,300 -1,277 Descending FlightAware ADS-B
Fri 05:16:55 AM 30.0275 -95.3858 152° Southeast 138 159 1,000 -1,091 Descending FlightAware ADS-B
Fri 05:17:02 AM 30.0233 -95.3830 150° Southeast 134 154 900 -800 Descending FlightAware ADS-B
Fri 05:17:10 AM 30.0187 -95.3803 153° Southeast 139 160 800 -783 Descending FlightAware ADS-B
Fri 05:17:25 AM 30.0104 -95.3754 153° Southeast 142 163 600 -800 Descending FlightAware ADS-B
Fri 05:17:40 AM 30.0011 -95.3698 152° Southeast 143 165 400 -938 Descending FlightAware ADS-B
Fri 05:17:57 AM 29.9912 -95.3636 152° Southeast 144 166 100 -857 Descending FlightAware ADS-B
Fri 05:18:01 AM 29.9887 -95.3621 153° Southeast 146 168 100  Level FlightAware ADS-B

Login

Don't have an account? Register now (free) for customized features, flight alerts, and more!